sensor_id;sensor_type;location;lat;lon;timestamp;temperature;humidity
15991;DHT22;8100;50.994;4.538;2023-03-15T00:00:21;1.90;99.90
15991;DHT22;8100;50.994;4.538;2023-03-15T00:03:10;1.60;99.90
15991;DHT22;8100;50.994;4.538;2023-03-15T00:06:00;2.80;99.90
15991;DHT22;8100;50.994;4.538;2023-03-15T00:08:47;1.80;99.90
15991;DHT22;8100;50.994;4.538;2023-03-15T00:11:34;1.90;99.90
15991;DHT22;8100;50.994;4.538;2023-03-15T00:14:21;2.80;99.90
15991;DHT22;8100;50.994;4.538;2023-03-15T00:17:09;2.50;99.90
15991;DHT22;8100;50.994;4.538;2023-03-15T00:19:58;1.90;99.90
15991;DHT22;8100;50.994;4.538;2023-03-15T00:22:45;2.40;99.90
15991;DHT22;8100;50.994;4.538;2023-03-15T00:25:32;2.80;99.90
15991;DHT22;8100;50.994;4.538;2023-03-15T00:28:20;1.60;99.90
15991;DHT22;8100;50.994;4.538;2023-03-15T00:31:11;2.40;99.90
15991;DHT22;8100;50.994;4.538;2023-03-15T00:33:59;3.10;99.90
15991;DHT22;8100;50.994;4.538;2023-03-15T00:36:48;2.50;99.90
15991;DHT22;8100;50.994;4.538;2023-03-15T00:39:35;3.60;99.90
15991;DHT22;8100;50.994;4.538;2023-03-15T00:42:24;2.10;99.90
15991;DHT22;8100;50.994;4.538;2023-03-15T00:45:12;3.10;99.90
15991;DHT22;8100;50.994;4.538;2023-03-15T00:47:59;2.00;99.90
15991;DHT22;8100;50.994;4.538;2023-03-15T00:50:46;3.10;99.90
15991;DHT22;8100;50.994;4.538;2023-03-15T00:53:36;3.00;99.90
15991;DHT22;8100;50.994;4.538;2023-03-15T00:56:25;2.50;99.90
15991;DHT22;8100;50.994;4.538;2023-03-15T00:59:14;1.90;99.90
15991;DHT22;8100;50.994;4.538;2023-03-15T01:02:02;3.20;99.90
15991;DHT22;8100;50.994;4.538;2023-03-15T01:04:50;2.10;99.90
15991;DHT22;8100;50.994;4.538;2023-03-15T01:07:37;2.20;99.90
15991;DHT22;8100;50.994;4.538;2023-03-15T01:10:26;3.80;99.90
15991;DHT22;8100;50.994;4.538;2023-03-15T01:13:13;3.80;99.90
15991;DHT22;8100;50.994;4.538;2023-03-15T01:16:00;2.30;99.90
15991;DHT22;8100;50.994;4.538;2023-03-15T01:18:48;3.20;99.90
15991;DHT22;8100;50.994;4.538;2023-03-15T01:21:36;3.50;99.90
15991;DHT22;8100;50.994;4.538;2023-03-15T01:24:24;2.60;99.90
15991;DHT22;8100;50.994;4.538;2023-03-15T01:27:12;2.30;99.90
15991;DHT22;8100;50.994;4.538;2023-03-15T01:30:00;2.50;99.90
15991;DHT22;8100;50.994;4.538;2023-03-15T01:32:47;3.30;99.90
15991;DHT22;8100;50.994;4.538;2023-03-15T01:35:34;2.50;99.90
15991;DHT22;8100;50.994;4.538;2023-03-15T01:38:21;2.40;99.90
15991;DHT22;8100;50.994;4.538;2023-03-15T01:41:09;2.70;99.90
15991;DHT22;8100;50.994;4.538;2023-03-15T01:43:58;2.50;99.90
15991;DHT22;8100;50.994;4.538;2023-03-15T01:46:45;2.50;99.90
15991;DHT22;8100;50.994;4.538;2023-03-15T01:49:32;3.60;99.90
15991;DHT22;8100;50.994;4.538;2023-03-15T01:52:21;3.90;99.90
15991;DHT22;8100;50.994;4.538;2023-03-15T01:55:12;2.40;99.90
15991;DHT22;8100;50.994;4.538;2023-03-15T01:58:01;4.10;99.90
15991;DHT22;8100;50.994;4.538;2023-03-15T02:00:53;4.00;99.90
15991;DHT22;8100;50.994;4.538;2023-03-15T02:03:43;4.00;99.90
15991;DHT22;8100;50.994;4.538;2023-03-15T02:06:33;3.40;99.90
15991;DHT22;8100;50.994;4.538;2023-03-15T02:09:21;3.00;99.90
15991;DHT22;8100;50.994;4.538;2023-03-15T02:12:09;3.30;99.90
15991;DHT22;8100;50.994;4.538;2023-03-15T02:14:57;4.00;99.90
15991;DHT22;8100;50.994;4.538;2023-03-15T02:17:47;2.30;99.90
15991;DHT22;8100;50.994;4.538;2023-03-15T02:20:41;2.50;99.90
15991;DHT22;8100;50.994;4.538;2023-03-15T02:23:31;4.20;99.90
15991;DHT22;8100;50.994;4.538;2023-03-15T02:26:22;4.30;99.90
15991;DHT22;8100;50.994;4.538;2023-03-15T02:29:12;4.30;99.90
15991;DHT22;8100;50.994;4.538;2023-03-15T02:32:00;4.30;99.90
15991;DHT22;8100;50.994;4.538;2023-03-15T02:34:49;4.40;99.90
15991;DHT22;8100;50.994;4.538;2023-03-15T02:37:36;2.60;99.90
15991;DHT22;8100;50.994;4.538;2023-03-15T02:40:25;2.70;99.90
15991;DHT22;8100;50.994;4.538;2023-03-15T02:43:15;3.80;99.90
15991;DHT22;8100;50.994;4.538;2023-03-15T02:46:04;4.50;99.90
15991;DHT22;8100;50.994;4.538;2023-03-15T02:48:52;4.50;99.90
15991;DHT22;8100;50.994;4.538;2023-03-15T02:51:40;3.80;99.90
15991;DHT22;8100;50.994;4.538;2023-03-15T02:54:27;3.20;99.90
15991;DHT22;8100;50.994;4.538;2023-03-15T02:57:16;4.40;99.90
15991;DHT22;8100;50.994;4.538;2023-03-15T03:00:05;2.80;99.90
15991;DHT22;8100;50.994;4.538;2023-03-15T03:03:00;3.10;99.90
15991;DHT22;8100;50.994;4.538;2023-03-15T03:05:47;4.30;99.90
15991;DHT22;8100;50.994;4.538;2023-03-15T03:08:35;3.70;99.90
15991;DHT22;8100;50.994;4.538;2023-03-15T03:11:22;4.40;99.90
15991;DHT22;8100;50.994;4.538;2023-03-15T03:14:09;3.40;99.90
15991;DHT22;8100;50.994;4.538;2023-03-15T03:16:59;3.60;99.90
15991;DHT22;8100;50.994;4.538;2023-03-15T03:19:47;2.90;99.90
15991;DHT22;8100;50.994;4.538;2023-03-15T03:22:35;4.60;99.90
15991;DHT22;8100;50.994;4.538;2023-03-15T03:25:23;2.90;99.90
15991;DHT22;8100;50.994;4.538;2023-03-15T03:28:12;4.30;99.90
15991;DHT22;8100;50.994;4.538;2023-03-15T03:30:59;4.60;99.90
15991;DHT22;8100;50.994;4.538;2023-03-15T03:33:46;3.00;99.90
15991;DHT22;8100;50.994;4.538;2023-03-15T03:36:35;4.60;99.90
15991;DHT22;8100;50.994;4.538;2023-03-15T03:39:22;3.90;99.90
15991;DHT22;8100;50.994;4.538;2023-03-15T03:42:09;4.70;99.90
15991;DHT22;8100;50.994;4.538;2023-03-15T03:44:57;2.80;99.90
15991;DHT22;8100;50.994;4.538;2023-03-15T03:47:44;4.00;99.90
15991;DHT22;8100;50.994;4.538;2023-03-15T03:50:31;4.70;99.90
15991;DHT22;8100;50.994;4.538;2023-03-15T03:53:20;2.90;99.90
15991;DHT22;8100;50.994;4.538;2023-03-15T03:56:07;4.70;99.90
15991;DHT22;8100;50.994;4.538;2023-03-15T03:58:55;4.60;99.90
15991;DHT22;8100;50.994;4.538;2023-03-15T04:01:42;3.30;99.90
15991;DHT22;8100;50.994;4.538;2023-03-15T04:04:29;2.70;99.90
15991;DHT22;8100;50.994;4.538;2023-03-15T04:07:16;2.70;99.90
15991;DHT22;8100;50.994;4.538;2023-03-15T04:10:06;2.80;99.90
15991;DHT22;8100;50.994;4.538;2023-03-15T04:12:54;3.30;99.90
15991;DHT22;8100;50.994;4.538;2023-03-15T04:15:41;2.80;99.90
15991;DHT22;8100;50.994;4.538;2023-03-15T04:18:28;4.60;99.90
15991;DHT22;8100;50.994;4.538;2023-03-15T04:21:15;3.90;99.90
15991;DHT22;8100;50.994;4.538;2023-03-15T04:24:07;4.30;99.90
15991;DHT22;8100;50.994;4.538;2023-03-15T04:26:56;4.80;99.90
15991;DHT22;8100;50.994;4.538;2023-03-15T04:29:43;4.70;99.90
15991;DHT22;8100;50.994;4.538;2023-03-15T04:32:30;2.90;99.90
15991;DHT22;8100;50.994;4.538;2023-03-15T04:35:18;4.70;99.90
15991;DHT22;8100;50.994;4.538;2023-03-15T04:38:05;3.50;99.90
15991;DHT22;8100;50.994;4.538;2023-03-15T04:40:52;4.30;99.90
15991;DHT22;8100;50.994;4.538;2023-03-15T04:43:41;2.90;99.90
15991;DHT22;8100;50.994;4.538;2023-03-15T04:46:29;2.50;99.90
15991;DHT22;8100;50.994;4.538;2023-03-15T04:49:16;3.00;99.90
15991;DHT22;8100;50.994;4.538;2023-03-15T04:52:04;2.50;99.90
15991;DHT22;8100;50.994;4.538;2023-03-15T04:54:51;2.30;99.90
15991;DHT22;8100;50.994;4.538;2023-03-15T04:57:38;2.40;99.90
15991;DHT22;8100;50.994;4.538;2023-03-15T05:00:27;3.70;99.90
15991;DHT22;8100;50.994;4.538;2023-03-15T05:03:14;3.10;99.90
15991;DHT22;8100;50.994;4.538;2023-03-15T05:06:02;2.00;99.90
15991;DHT22;8100;50.994;4.538;2023-03-15T05:08:53;2.30;99.90
15991;DHT22;8100;50.994;4.538;2023-03-15T05:11:40;3.70;99.90
15991;DHT22;8100;50.994;4.538;2023-03-15T05:14:27;2.00;99.90
15991;DHT22;8100;50.994;4.538;2023-03-15T05:17:16;3.70;99.90
15991;DHT22;8100;50.994;4.538;2023-03-15T05:20:04;3.50;99.90
15991;DHT22;8100;50.994;4.538;2023-03-15T05:22:55;1.90;99.90
15991;DHT22;8100;50.994;4.538;2023-03-15T05:25:49;2.40;99.90
15991;DHT22;8100;50.994;4.538;2023-03-15T05:28:38;2.90;99.90
15991;DHT22;8100;50.994;4.538;2023-03-15T05:31:25;2.30;99.90
15991;DHT22;8100;50.994;4.538;2023-03-15T05:34:14;3.00;99.90
15991;DHT22;8100;50.994;4.538;2023-03-15T05:37:02;1.80;99.90
15991;DHT22;8100;50.994;4.538;2023-03-15T05:39:49;3.50;99.90
15991;DHT22;8100;50.994;4.538;2023-03-15T05:42:36;1.70;99.90
15991;DHT22;8100;50.994;4.538;2023-03-15T05:45:23;1.70;99.90
15991;DHT22;8100;50.994;4.538;2023-03-15T05:48:11;1.50;99.90
15991;DHT22;8100;50.994;4.538;2023-03-15T05:50:59;3.20;99.90
15991;DHT22;8100;50.994;4.538;2023-03-15T05:53:46;3.00;99.90
15991;DHT22;8100;50.994;4.538;2023-03-15T05:56:34;2.20;99.90
15991;DHT22;8100;50.994;4.538;2023-03-15T05:59:21;1.00;99.90
15991;DHT22;8100;50.994;4.538;2023-03-15T06:02:08;2.00;99.90
15991;DHT22;8100;50.994;4.538;2023-03-15T06:04:56;1.00;99.90
15991;DHT22;8100;50.994;4.538;2023-03-15T06:07:44;1.00;99.90
15991;DHT22;8100;50.994;4.538;2023-03-15T06:10:31;2.40;99.90
15991;DHT22;8100;50.994;4.538;2023-03-15T06:13:19;1.80;99.90
15991;DHT22;8100;50.994;4.538;2023-03-15T06:16:06;1.20;99.90
15991;DHT22;8100;50.994;4.538;2023-03-15T06:18:53;2.90;99.90
15991;DHT22;8100;50.994;4.538;2023-03-15T06:21:41;3.20;99.90
15991;DHT22;8100;50.994;4.538;2023-03-15T06:24:29;3.20;99.90
15991;DHT22;8100;50.994;4.538;2023-03-15T06:27:16;3.30;99.90
15991;DHT22;8100;50.994;4.538;2023-03-15T06:30:08;3.20;99.90
15991;DHT22;8100;50.994;4.538;2023-03-15T06:32:55;2.90;99.90
15991;DHT22;8100;50.994;4.538;2023-03-15T06:35:42;2.40;99.90
15991;DHT22;8100;50.994;4.538;2023-03-15T06:38:31;1.60;99.90
15991;DHT22;8100;50.994;4.538;2023-03-15T06:41:20;3.30;99.90
15991;DHT22;8100;50.994;4.538;2023-03-15T06:44:08;1.50;99.90
15991;DHT22;8100;50.994;4.538;2023-03-15T06:46:55;2.20;99.90
15991;DHT22;8100;50.994;4.538;2023-03-15T06:49:43;1.80;99.90
15991;DHT22;8100;50.994;4.538;2023-03-15T06:52:35;3.20;99.90
15991;DHT22;8100;50.994;4.538;2023-03-15T06:55:23;2.00;99.90
15991;DHT22;8100;50.994;4.538;2023-03-15T06:58:12;2.20;99.90
15991;DHT22;8100;50.994;4.538;2023-03-15T07:00:59;3.40;99.90
15991;DHT22;8100;50.994;4.538;2023-03-15T07:03:46;3.40;99.90
15991;DHT22;8100;50.994;4.538;2023-03-15T07:06:33;2.50;99.90
15991;DHT22;8100;50.994;4.538;2023-03-15T07:09:21;4.30;99.90
15991;DHT22;8100;50.994;4.538;2023-03-15T07:12:09;3.60;99.90
15991;DHT22;8100;50.994;4.538;2023-03-15T07:14:58;4.20;99.90
15991;DHT22;8100;50.994;4.538;2023-03-15T07:17:45;4.20;99.90
15991;DHT22;8100;50.994;4.538;2023-03-15T07:20:33;3.30;99.90
15991;DHT22;8100;50.994;4.538;2023-03-15T07:23:20;4.40;99.90
15991;DHT22;8100;50.994;4.538;2023-03-15T07:26:07;3.00;99.90
15991;DHT22;8100;50.994;4.538;2023-03-15T07:28:54;3.10;99.90
15991;DHT22;8100;50.994;4.538;2023-03-15T07:31:43;4.70;99.90
15991;DHT22;8100;50.994;4.538;2023-03-15T07:34:30;4.20;99.90
15991;DHT22;8100;50.994;4.538;2023-03-15T07:37:17;4.80;99.90
15991;DHT22;8100;50.994;4.538;2023-03-15T07:40:06;3.70;99.90
15991;DHT22;8100;50.994;4.538;2023-03-15T07:42:55;4.50;99.90
15991;DHT22;8100;50.994;4.538;2023-03-15T07:45:43;4.30;99.90
15991;DHT22;8100;50.994;4.538;2023-03-15T07:48:32;5.10;99.90
15991;DHT22;8100;50.994;4.538;2023-03-15T07:51:19;4.40;99.90
15991;DHT22;8100;50.994;4.538;2023-03-15T07:54:06;4.40;99.90
15991;DHT22;8100;50.994;4.538;2023-03-15T07:56:53;5.10;99.90
15991;DHT22;8100;50.994;4.538;2023-03-15T07:59:41;4.80;99.90
15991;DHT22;8100;50.994;4.538;2023-03-15T08:02:28;5.10;99.90
15991;DHT22;8100;50.994;4.538;2023-03-15T08:05:17;5.20;99.90
15991;DHT22;8100;50.994;4.538;2023-03-15T08:08:05;5.30;99.90
15991;DHT22;8100;50.994;4.538;2023-03-15T08:10:52;4.80;99.90
15991;DHT22;8100;50.994;4.538;2023-03-15T08:13:40;5.10;99.90
15991;DHT22;8100;50.994;4.538;2023-03-15T08:16:27;5.20;99.90
15991;DHT22;8100;50.994;4.538;2023-03-15T08:19:15;5.30;99.90
15991;DHT22;8100;50.994;4.538;2023-03-15T08:22:03;5.50;99.90
15991;DHT22;8100;50.994;4.538;2023-03-15T08:24:51;5.40;99.90
15991;DHT22;8100;50.994;4.538;2023-03-15T08:27:38;5.50;99.90
15991;DHT22;8100;50.994;4.538;2023-03-15T08:30:26;5.30;99.90
15991;DHT22;8100;50.994;4.538;2023-03-15T08:33:14;5.40;99.90
15991;DHT22;8100;50.994;4.538;2023-03-15T08:36:01;5.30;99.90
15991;DHT22;8100;50.994;4.538;2023-03-15T08:38:49;5.50;99.90
15991;DHT22;8100;50.994;4.538;2023-03-15T08:41:37;5.60;99.90
15991;DHT22;8100;50.994;4.538;2023-03-15T08:44:24;5.80;99.90
15991;DHT22;8100;50.994;4.538;2023-03-15T08:47:11;6.00;99.90
15991;DHT22;8100;50.994;4.538;2023-03-15T08:49:58;6.10;99.90
15991;DHT22;8100;50.994;4.538;2023-03-15T08:52:45;5.70;99.90
15991;DHT22;8100;50.994;4.538;2023-03-15T08:55:34;5.70;99.90
15991;DHT22;8100;50.994;4.538;2023-03-15T08:58:21;5.60;99.90
15991;DHT22;8100;50.994;4.538;2023-03-15T09:01:10;5.80;99.90
15991;DHT22;8100;50.994;4.538;2023-03-15T09:03:57;5.80;99.90
15991;DHT22;8100;50.994;4.538;2023-03-15T09:06:44;5.70;99.90
15991;DHT22;8100;50.994;4.538;2023-03-15T09:09:31;5.60;99.90
15991;DHT22;8100;50.994;4.538;2023-03-15T09:12:20;5.60;99.90
15991;DHT22;8100;50.994;4.538;2023-03-15T09:15:09;5.80;99.90
15991;DHT22;8100;50.994;4.538;2023-03-15T09:17:56;6.10;99.90
15991;DHT22;8100;50.994;4.538;2023-03-15T09:20:44;6.60;99.90
15991;DHT22;8100;50.994;4.538;2023-03-15T09:23:31;6.80;99.90
15991;DHT22;8100;50.994;4.538;2023-03-15T09:26:19;7.10;80.00
15991;DHT22;8100;50.994;4.538;2023-03-15T09:29:08;7.50;84.40
15991;DHT22;8100;50.994;4.538;2023-03-15T09:31:55;7.60;1.00
15991;DHT22;8100;50.994;4.538;2023-03-15T09:34:43;7.40;1.00
15991;DHT22;8100;50.994;4.538;2023-03-15T09:37:30;7.30;99.90
15991;DHT22;8100;50.994;4.538;2023-03-15T09:40:20;7.20;99.90
15991;DHT22;8100;50.994;4.538;2023-03-15T09:43:26;7.20;99.90
15991;DHT22;8100;50.994;4.538;2023-03-15T09:46:25;7.10;99.90
15991;DHT22;8100;50.994;4.538;2023-03-15T09:49:17;6.90;99.90
15991;DHT22;8100;50.994;4.538;2023-03-15T09:52:14;6.60;99.90
15991;DHT22;8100;50.994;4.538;2023-03-15T09:55:12;6.80;99.90
15991;DHT22;8100;50.994;4.538;2023-03-15T09:58:02;7.30;99.90
15991;DHT22;8100;50.994;4.538;2023-03-15T10:00:52;7.40;99.90
15991;DHT22;8100;50.994;4.538;2023-03-15T10:03:45;7.60;99.90
15991;DHT22;8100;50.994;4.538;2023-03-15T10:06:34;7.40;99.90
15991;DHT22;8100;50.994;4.538;2023-03-15T10:09:24;6.90;99.90
15991;DHT22;8100;50.994;4.538;2023-03-15T10:12:14;6.50;99.90
15991;DHT22;8100;50.994;4.538;2023-03-15T10:15:25;6.40;99.90
15991;DHT22;8100;50.994;4.538;2023-03-15T10:18:25;6.00;99.90
15991;DHT22;8100;50.994;4.538;2023-03-15T10:21:28;6.00;1.00
15991;DHT22;8100;50.994;4.538;2023-03-15T10:24:19;6.20;1.00
15991;DHT22;8100;50.994;4.538;2023-03-15T10:27:14;6.20;1.00
15991;DHT22;8100;50.994;4.538;2023-03-15T10:30:05;6.00;1.00
15991;DHT22;8100;50.994;4.538;2023-03-15T10:33:01;5.90;1.00
15991;DHT22;8100;50.994;4.538;2023-03-15T10:35:50;5.90;1.00
15991;DHT22;8100;50.994;4.538;2023-03-15T10:38:38;6.10;1.00
15991;DHT22;8100;50.994;4.538;2023-03-15T10:41:28;6.50;1.00
15991;DHT22;8100;50.994;4.538;2023-03-15T10:44:18;7.20;1.00
15991;DHT22;8100;50.994;4.538;2023-03-15T10:47:11;7.30;99.90
15991;DHT22;8100;50.994;4.538;2023-03-15T10:49:59;7.30;99.90
15991;DHT22;8100;50.994;4.538;2023-03-15T10:52:46;7.50;99.90
15991;DHT22;8100;50.994;4.538;2023-03-15T10:55:36;7.40;99.90
15991;DHT22;8100;50.994;4.538;2023-03-15T10:58:38;7.80;99.90
15991;DHT22;8100;50.994;4.538;2023-03-15T11:01:27;7.80;99.90
15991;DHT22;8100;50.994;4.538;2023-03-15T11:04:20;7.60;99.90
15991;DHT22;8100;50.994;4.538;2023-03-15T11:07:08;7.70;99.90
15991;DHT22;8100;50.994;4.538;2023-03-15T11:09:59;7.70;99.90
15991;DHT22;8100;50.994;4.538;2023-03-15T11:12:48;7.80;99.90
15991;DHT22;8100;50.994;4.538;2023-03-15T11:15:36;7.60;99.90
15991;DHT22;8100;50.994;4.538;2023-03-15T11:18:26;7.60;99.90
15991;DHT22;8100;50.994;4.538;2023-03-15T11:21:16;7.40;99.90
15991;DHT22;8100;50.994;4.538;2023-03-15T11:24:05;7.20;99.90
15991;DHT22;8100;50.994;4.538;2023-03-15T11:26:54;7.10;99.90
15991;DHT22;8100;50.994;4.538;2023-03-15T11:29:45;7.10;99.90
15991;DHT22;8100;50.994;4.538;2023-03-15T11:32:34;7.40;99.90
15991;DHT22;8100;50.994;4.538;2023-03-15T11:35:25;7.40;99.90
15991;DHT22;8100;50.994;4.538;2023-03-15T11:38:24;7.40;99.90
15991;DHT22;8100;50.994;4.538;2023-03-15T11:41:24;7.60;99.90
15991;DHT22;8100;50.994;4.538;2023-03-15T11:44:20;7.80;99.90
15991;DHT22;8100;50.994;4.538;2023-03-15T11:47:15;7.90;99.90
15991;DHT22;8100;50.994;4.538;2023-03-15T11:50:03;8.10;99.90
15991;DHT22;8100;50.994;4.538;2023-03-15T11:52:51;8.40;99.90
15991;DHT22;8100;50.994;4.538;2023-03-15T11:55:38;8.20;99.90
15991;DHT22;8100;50.994;4.538;2023-03-15T11:58:28;8.20;99.90
15991;DHT22;8100;50.994;4.538;2023-03-15T12:01:24;8.40;99.90
15991;DHT22;8100;50.994;4.538;2023-03-15T12:04:44;8.30;99.90
15991;DHT22;8100;50.994;4.538;2023-03-15T12:07:37;8.50;99.90
15991;DHT22;8100;50.994;4.538;2023-03-15T12:10:43;8.40;99.90
15991;DHT22;8100;50.994;4.538;2023-03-15T12:13:34;8.40;99.90
15991;DHT22;8100;50.994;4.538;2023-03-15T12:16:24;8.60;99.90
15991;DHT22;8100;50.994;4.538;2023-03-15T12:19:15;8.60;99.90
15991;DHT22;8100;50.994;4.538;2023-03-15T12:22:04;8.50;99.90
15991;DHT22;8100;50.994;4.538;2023-03-15T12:24:51;8.80;99.90
15991;DHT22;8100;50.994;4.538;2023-03-15T12:27:44;9.00;99.90
15991;DHT22;8100;50.994;4.538;2023-03-15T12:30:38;9.60;99.90
15991;DHT22;8100;50.994;4.538;2023-03-15T12:33:29;10.00;99.90
15991;DHT22;8100;50.994;4.538;2023-03-15T12:36:33;10.20;99.90
15991;DHT22;8100;50.994;4.538;2023-03-15T12:39:43;10.10;99.90
15991;DHT22;8100;50.994;4.538;2023-03-15T12:45:55;9.70;99.90
15991;DHT22;8100;50.994;4.538;2023-03-15T12:49:04;10.10;99.90
15991;DHT22;8100;50.994;4.538;2023-03-15T12:51:55;10.10;99.90
15991;DHT22;8100;50.994;4.538;2023-03-15T12:54:48;10.10;99.90
15991;DHT22;8100;50.994;4.538;2023-03-15T12:57:38;10.10;99.90
15991;DHT22;8100;50.994;4.538;2023-03-15T13:00:28;9.50;99.90
15991;DHT22;8100;50.994;4.538;2023-03-15T13:03:20;9.70;99.90
15991;DHT22;8100;50.994;4.538;2023-03-15T13:06:11;9.70;99.90
15991;DHT22;8100;50.994;4.538;2023-03-15T13:09:04;9.50;99.90
15991;DHT22;8100;50.994;4.538;2023-03-15T13:12:00;9.60;99.90
15991;DHT22;8100;50.994;4.538;2023-03-15T13:14:56;9.90;99.90
15991;DHT22;8100;50.994;4.538;2023-03-15T13:17:49;9.70;99.90
15991;DHT22;8100;50.994;4.538;2023-03-15T13:20:41;9.70;99.90
15991;DHT22;8100;50.994;4.538;2023-03-15T13:23:33;9.90;99.90
15991;DHT22;8100;50.994;4.538;2023-03-15T13:26:33;10.00;99.90
15991;DHT22;8100;50.994;4.538;2023-03-15T13:29:26;10.20;99.90
15991;DHT22;8100;50.994;4.538;2023-03-15T13:32:17;10.10;99.90
15991;DHT22;8100;50.994;4.538;2023-03-15T13:35:10;9.90;99.90
15991;DHT22;8100;50.994;4.538;2023-03-15T13:38:29;10.00;99.90
15991;DHT22;8100;50.994;4.538;2023-03-15T13:41:19;10.40;99.90
15991;DHT22;8100;50.994;4.538;2023-03-15T13:44:15;10.10;99.90
15991;DHT22;8100;50.994;4.538;2023-03-15T13:47:03;10.10;99.90
15991;DHT22;8100;50.994;4.538;2023-03-15T13:49:51;10.20;99.90
15991;DHT22;8100;50.994;4.538;2023-03-15T13:52:40;10.10;99.90
15991;DHT22;8100;50.994;4.538;2023-03-15T13:55:31;10.20;99.90
15991;DHT22;8100;50.994;4.538;2023-03-15T13:58:18;10.40;99.90
15991;DHT22;8100;50.994;4.538;2023-03-15T14:01:10;10.30;99.90
15991;DHT22;8100;50.994;4.538;2023-03-15T14:04:03;10.10;99.90
15991;DHT22;8100;50.994;4.538;2023-03-15T14:07:15;9.90;99.90
15991;DHT22;8100;50.994;4.538;2023-03-15T14:10:25;10.10;99.90
15991;DHT22;8100;50.994;4.538;2023-03-15T14:13:22;10.50;99.90
15991;DHT22;8100;50.994;4.538;2023-03-15T14:16:14;10.50;99.90
15991;DHT22;8100;50.994;4.538;2023-03-15T14:19:17;10.30;99.90
15991;DHT22;8100;50.994;4.538;2023-03-15T14:22:13;10.30;99.90
15991;DHT22;8100;50.994;4.538;2023-03-15T14:25:02;10.10;99.90
15991;DHT22;8100;50.994;4.538;2023-03-15T14:27:49;10.10;99.90
15991;DHT22;8100;50.994;4.538;2023-03-15T14:30:37;10.10;99.90
15991;DHT22;8100;50.994;4.538;2023-03-15T14:33:29;10.10;99.90
15991;DHT22;8100;50.994;4.538;2023-03-15T14:36:24;10.00;99.90
15991;DHT22;8100;50.994;4.538;2023-03-15T14:39:18;10.00;99.90
15991;DHT22;8100;50.994;4.538;2023-03-15T14:42:06;10.60;99.90
15991;DHT22;8100;50.994;4.538;2023-03-15T14:44:56;11.40;99.90
15991;DHT22;8100;50.994;4.538;2023-03-15T14:47:45;12.20;99.90
15991;DHT22;8100;50.994;4.538;2023-03-15T14:50:35;11.90;99.90
15991;DHT22;8100;50.994;4.538;2023-03-15T14:53:25;11.60;99.90
15991;DHT22;8100;50.994;4.538;2023-03-15T14:56:15;11.70;99.90
15991;DHT22;8100;50.994;4.538;2023-03-15T14:59:08;12.20;99.90
15991;DHT22;8100;50.994;4.538;2023-03-15T15:01:57;12.70;99.90
15991;DHT22;8100;50.994;4.538;2023-03-15T15:04:45;12.50;99.90
15991;DHT22;8100;50.994;4.538;2023-03-15T15:07:33;12.80;99.90
15991;DHT22;8100;50.994;4.538;2023-03-15T15:10:23;12.20;99.90
15991;DHT22;8100;50.994;4.538;2023-03-15T15:13:15;12.00;99.90
15991;DHT22;8100;50.994;4.538;2023-03-15T15:16:04;12.30;99.90
15991;DHT22;8100;50.994;4.538;2023-03-15T15:18:51;12.70;99.90
15991;DHT22;8100;50.994;4.538;2023-03-15T15:21:38;12.40;99.90
15991;DHT22;8100;50.994;4.538;2023-03-15T15:24:26;12.20;99.90
15991;DHT22;8100;50.994;4.538;2023-03-15T15:27:15;12.00;99.90
15991;DHT22;8100;50.994;4.538;2023-03-15T15:30:02;11.40;99.90
15991;DHT22;8100;50.994;4.538;2023-03-15T15:32:50;11.30;99.90
15991;DHT22;8100;50.994;4.538;2023-03-15T15:35:37;11.00;99.90
15991;DHT22;8100;50.994;4.538;2023-03-15T15:38:28;10.60;99.90
15991;DHT22;8100;50.994;4.538;2023-03-15T15:41:21;10.10;99.90
15991;DHT22;8100;50.994;4.538;2023-03-15T15:44:14;10.00;99.90
15991;DHT22;8100;50.994;4.538;2023-03-15T15:47:01;10.00;99.90
15991;DHT22;8100;50.994;4.538;2023-03-15T15:49:48;10.00;99.90
15991;DHT22;8100;50.994;4.538;2023-03-15T15:52:38;9.90;99.90
15991;DHT22;8100;50.994;4.538;2023-03-15T15:55:29;10.10;99.90
15991;DHT22;8100;50.994;4.538;2023-03-15T15:58:18;10.20;99.90
15991;DHT22;8100;50.994;4.538;2023-03-15T16:01:11;10.10;99.90
15991;DHT22;8100;50.994;4.538;2023-03-15T16:03:59;10.50;99.90
15991;DHT22;8100;50.994;4.538;2023-03-15T16:06:50;10.50;99.90
15991;DHT22;8100;50.994;4.538;2023-03-15T16:09:38;10.50;99.90
15991;DHT22;8100;50.994;4.538;2023-03-15T16:12:25;10.80;99.90
15991;DHT22;8100;50.994;4.538;2023-03-15T16:15:15;11.20;99.90
15991;DHT22;8100;50.994;4.538;2023-03-15T16:18:08;11.30;99.90
15991;DHT22;8100;50.994;4.538;2023-03-15T16:20:55;11.00;99.90
15991;DHT22;8100;50.994;4.538;2023-03-15T16:23:44;10.30;99.90
15991;DHT22;8100;50.994;4.538;2023-03-15T16:26:32;9.70;99.90
15991;DHT22;8100;50.994;4.538;2023-03-15T16:29:22;9.60;99.90
15991;DHT22;8100;50.994;4.538;2023-03-15T16:32:13;9.50;99.90
15991;DHT22;8100;50.994;4.538;2023-03-15T16:35:02;9.50;99.90
15991;DHT22;8100;50.994;4.538;2023-03-15T16:37:53;9.60;99.90
15991;DHT22;8100;50.994;4.538;2023-03-15T16:40:43;9.50;99.90
15991;DHT22;8100;50.994;4.538;2023-03-15T16:43:31;9.20;99.90
15991;DHT22;8100;50.994;4.538;2023-03-15T16:46:18;9.20;99.90
15991;DHT22;8100;50.994;4.538;2023-03-15T16:49:05;9.10;99.90
15991;DHT22;8100;50.994;4.538;2023-03-15T16:51:54;9.00;99.90
15991;DHT22;8100;50.994;4.538;2023-03-15T16:54:41;8.90;99.90
15991;DHT22;8100;50.994;4.538;2023-03-15T16:57:30;8.90;99.90
15991;DHT22;8100;50.994;4.538;2023-03-15T17:00:18;8.80;99.90
15991;DHT22;8100;50.994;4.538;2023-03-15T17:03:05;8.80;99.90
15991;DHT22;8100;50.994;4.538;2023-03-15T17:05:52;8.80;99.90
15991;DHT22;8100;50.994;4.538;2023-03-15T17:08:41;8.80;99.90
15991;DHT22;8100;50.994;4.538;2023-03-15T17:11:28;8.70;99.90
15991;DHT22;8100;50.994;4.538;2023-03-15T17:14:18;8.80;99.90
15991;DHT22;8100;50.994;4.538;2023-03-15T17:17:07;8.60;99.90
15991;DHT22;8100;50.994;4.538;2023-03-15T17:19:54;8.50;99.90
15991;DHT22;8100;50.994;4.538;2023-03-15T17:22:42;8.50;99.90
15991;DHT22;8100;50.994;4.538;2023-03-15T17:25:31;8.40;99.90
15991;DHT22;8100;50.994;4.538;2023-03-15T17:28:18;8.30;99.90
15991;DHT22;8100;50.994;4.538;2023-03-15T17:31:05;8.20;99.90
15991;DHT22;8100;50.994;4.538;2023-03-15T17:33:53;8.10;99.90
15991;DHT22;8100;50.994;4.538;2023-03-15T17:36:40;8.00;99.90
15991;DHT22;8100;50.994;4.538;2023-03-15T17:39:27;7.90;99.90
15991;DHT22;8100;50.994;4.538;2023-03-15T17:42:16;7.80;99.90
15991;DHT22;8100;50.994;4.538;2023-03-15T17:45:16;7.70;99.90
15991;DHT22;8100;50.994;4.538;2023-03-15T17:48:06;7.60;99.90
15991;DHT22;8100;50.994;4.538;2023-03-15T17:50:53;7.50;99.90
15991;DHT22;8100;50.994;4.538;2023-03-15T17:53:40;7.50;99.90
15991;DHT22;8100;50.994;4.538;2023-03-15T17:56:28;7.50;99.90
15991;DHT22;8100;50.994;4.538;2023-03-15T17:59:17;7.40;99.90
15991;DHT22;8100;50.994;4.538;2023-03-15T18:02:08;7.40;99.90
15991;DHT22;8100;50.994;4.538;2023-03-15T18:04:59;7.30;99.90
15991;DHT22;8100;50.994;4.538;2023-03-15T18:07:46;7.30;99.90
15991;DHT22;8100;50.994;4.538;2023-03-15T18:10:35;7.30;99.90
15991;DHT22;8100;50.994;4.538;2023-03-15T18:13:23;7.20;99.90
15991;DHT22;8100;50.994;4.538;2023-03-15T18:16:12;7.20;1.00
15991;DHT22;8100;50.994;4.538;2023-03-15T18:19:00;7.20;1.00
15991;DHT22;8100;50.994;4.538;2023-03-15T18:21:47;7.10;1.00
15991;DHT22;8100;50.994;4.538;2023-03-15T18:24:34;7.00;1.00
15991;DHT22;8100;50.994;4.538;2023-03-15T18:27:21;7.00;1.00